createdAt,value
2022-10-18T00:00:30.813Z,15.69
2022-10-18T00:03:02.060Z,15.70
2022-10-18T00:05:33.850Z,15.73
2022-10-18T00:08:05.514Z,15.61
2022-10-18T00:10:36.794Z,15.75
2022-10-18T00:13:08.275Z,15.69
2022-10-18T00:15:39.654Z,15.76
2022-10-18T00:18:10.894Z,15.75
2022-10-18T00:20:42.230Z,15.68
2022-10-18T00:23:13.614Z,15.70
2022-10-18T00:25:44.872Z,15.68
2022-10-18T00:28:16.117Z,15.58
2022-10-18T00:30:47.590Z,15.61
2022-10-18T00:33:18.901Z,15.61
2022-10-18T00:35:50.173Z,15.58
2022-10-18T00:38:21.414Z,15.57
2022-10-18T00:40:52.683Z,15.55
2022-10-18T00:43:23.983Z,15.57
2022-10-18T00:45:55.365Z,15.57
2022-10-18T00:48:26.676Z,15.59
2022-10-18T00:50:57.980Z,15.59
2022-10-18T00:53:29.286Z,15.52
2022-10-18T00:56:00.547Z,15.57
2022-10-18T00:58:31.958Z,15.56
2022-10-18T01:01:03.379Z,15.55
2022-10-18T01:03:36.181Z,15.57
2022-10-18T01:06:08.448Z,15.58
2022-10-18T01:09:09.822Z,15.56
2022-10-18T01:12:16.382Z,15.55
2022-10-18T01:15:11.259Z,15.55
2022-10-18T01:17:54.982Z,15.57
2022-10-18T01:20:42.413Z,15.61
2022-10-18T01:23:22.766Z,15.61
2022-10-18T01:26:02.467Z,15.55
2022-10-18T01:28:52.621Z,15.54
2022-10-18T01:31:31.877Z,15.52
2022-10-18T01:34:07.243Z,15.41
2022-10-18T01:36:46.817Z,15.49
2022-10-18T01:39:28.737Z,15.44
2022-10-18T01:42:03.276Z,15.48
2022-10-18T01:44:35.373Z,15.45
2022-10-18T01:47:10.722Z,15.48
2022-10-18T01:49:42.366Z,15.43
2022-10-18T01:52:15.462Z,15.46
2022-10-18T01:54:50.944Z,15.45
2022-10-18T01:57:39.250Z,15.45
2022-10-18T02:00:23.929Z,15.46
2022-10-18T02:03:04.817Z,15.45
2022-10-18T02:06:01.783Z,15.46
2022-10-18T02:08:50.089Z,15.49
2022-10-18T02:11:21.894Z,15.44
2022-10-18T02:13:57.818Z,15.42
2022-10-18T02:16:35.929Z,15.42
2022-10-18T02:19:14.422Z,15.42
2022-10-18T02:21:48.282Z,15.41
2022-10-18T02:24:23.470Z,15.32
2022-10-18T02:26:54.733Z,15.36
2022-10-18T02:29:26.057Z,15.33
2022-10-18T02:32:15.461Z,15.28
2022-10-18T02:34:54.438Z,15.30
2022-10-18T02:37:30.646Z,15.29
2022-10-18T02:40:03.872Z,15.35
2022-10-18T02:42:37.514Z,15.38
2022-10-18T02:45:08.910Z,15.40
2022-10-18T02:47:40.355Z,15.43
2022-10-18T02:50:12.128Z,15.42
2022-10-18T02:52:43.556Z,15.41
2022-10-18T02:55:15.402Z,15.42
2022-10-18T02:57:46.761Z,15.42
2022-10-18T03:00:18.167Z,15.36
2022-10-18T03:02:49.476Z,15.38
2022-10-18T03:05:20.759Z,15.38
2022-10-18T03:07:52.121Z,15.42
2022-10-18T03:10:23.366Z,15.42
2022-10-18T03:12:54.642Z,15.41
2022-10-18T03:15:25.939Z,15.39
2022-10-18T03:17:57.190Z,15.38
2022-10-18T03:20:28.588Z,15.31
2022-10-18T03:23:00.003Z,15.30
2022-10-18T03:25:31.258Z,15.27
2022-10-18T03:28:02.520Z,15.22
2022-10-18T03:30:34.021Z,15.30
2022-10-18T03:33:06.127Z,15.28
2022-10-18T03:35:37.389Z,15.29
2022-10-18T03:38:08.723Z,15.19
2022-10-18T03:40:40.143Z,15.31
2022-10-18T03:43:11.403Z,15.32
2022-10-18T03:45:43.035Z,15.27
2022-10-18T03:48:14.456Z,15.32
2022-10-18T03:50:45.845Z,15.33
2022-10-18T03:53:17.096Z,15.34
2022-10-18T03:55:55.690Z,15.33
2022-10-18T03:58:27.054Z,15.35
2022-10-18T04:00:58.345Z,15.36
2022-10-18T04:03:29.721Z,15.36
2022-10-18T04:06:03.317Z,15.34
2022-10-18T04:08:34.567Z,15.35
2022-10-18T04:11:09.775Z,15.38
2022-10-18T04:13:41.150Z,15.35
2022-10-18T04:16:12.490Z,15.37
2022-10-18T04:18:43.735Z,15.42
2022-10-18T04:21:15.032Z,15.37
2022-10-18T04:23:50.570Z,15.40
2022-10-18T04:26:22.750Z,15.40
2022-10-18T04:28:54.378Z,15.37
2022-10-18T04:31:25.783Z,15.33
2022-10-18T04:33:57.075Z,15.30
2022-10-18T04:36:28.325Z,15.29
2022-10-18T04:38:59.614Z,15.26
2022-10-18T04:41:31.020Z,15.21
2022-10-18T04:44:02.259Z,15.27
2022-10-18T04:46:33.908Z,15.27
2022-10-18T04:49:05.144Z,15.29
2022-10-18T04:51:36.675Z,15.24
2022-10-18T04:54:07.922Z,15.28
2022-10-18T04:56:39.222Z,15.26
2022-10-18T04:59:10.534Z,15.26
2022-10-18T05:01:41.956Z,15.28
2022-10-18T05:04:13.240Z,15.36
2022-10-18T05:06:44.674Z,15.38
2022-10-18T05:09:16.001Z,15.37
2022-10-18T05:11:47.274Z,15.37
2022-10-18T05:14:18.671Z,15.34
2022-10-18T05:16:49.935Z,15.32
2022-10-18T05:19:21.455Z,15.33
2022-10-18T05:21:52.774Z,15.33
2022-10-18T05:24:26.962Z,15.30
2022-10-18T05:26:59.189Z,15.28
2022-10-18T05:29:30.450Z,15.23
2022-10-18T05:32:01.705Z,15.24
2022-10-18T05:34:33.065Z,15.31
2022-10-18T05:37:04.335Z,15.34
2022-10-18T05:39:37.294Z,15.36
2022-10-18T05:42:08.798Z,15.33
2022-10-18T05:44:40.047Z,15.31
2022-10-18T05:47:11.291Z,15.30
2022-10-18T05:49:42.576Z,15.24
2022-10-18T05:52:13.912Z,15.28
2022-10-18T05:54:45.161Z,15.24
2022-10-18T05:57:16.415Z,15.27
2022-10-18T05:59:47.658Z,15.28
2022-10-18T06:02:19.023Z,15.26
2022-10-18T06:04:50.313Z,15.26
2022-10-18T06:07:21.564Z,15.20
2022-10-18T06:09:52.820Z,15.22
2022-10-18T06:12:24.100Z,15.21
2022-10-18T06:14:55.382Z,15.24
2022-10-18T06:17:28.978Z,15.25
2022-10-18T06:20:04.351Z,15.22
2022-10-18T06:22:35.816Z,15.26
2022-10-18T06:25:07.313Z,15.34
2022-10-18T06:27:38.565Z,15.26
2022-10-18T06:30:10.206Z,15.26
2022-10-18T06:32:41.571Z,15.22
2022-10-18T06:35:12.898Z,15.28
2022-10-18T06:37:44.234Z,15.27
2022-10-18T06:40:15.618Z,15.27
2022-10-18T06:42:55.293Z,15.26
2022-10-18T06:45:37.166Z,15.22
2022-10-18T06:48:08.556Z,15.26
2022-10-18T06:50:39.910Z,15.18
2022-10-18T06:53:11.182Z,15.20
2022-10-18T06:55:42.456Z,15.26
2022-10-18T06:58:13.738Z,15.27
2022-10-18T07:00:45.545Z,15.26
2022-10-18T07:03:16.936Z,15.22
2022-10-18T07:05:49.358Z,15.27
2022-10-18T07:08:20.645Z,15.27
2022-10-18T07:10:53.170Z,15.25
2022-10-18T07:13:32.352Z,15.33
2022-10-18T07:16:05.940Z,15.24
2022-10-18T07:18:40.036Z,15.24
2022-10-18T07:21:15.957Z,15.20
2022-10-18T07:23:47.993Z,15.20
2022-10-18T07:26:25.093Z,15.20
2022-10-18T07:29:07.661Z,15.19
2022-10-18T07:31:40.713Z,15.19
2022-10-18T07:34:13.120Z,15.28
2022-10-18T07:36:44.381Z,15.33
2022-10-18T07:39:15.666Z,15.38
2022-10-18T07:41:47.058Z,15.42
2022-10-18T07:44:18.343Z,15.46
2022-10-18T07:46:49.586Z,15.49
2022-10-18T07:49:21.014Z,15.47
2022-10-18T07:51:52.273Z,15.53
2022-10-18T07:54:23.574Z,15.59
2022-10-18T07:56:54.892Z,15.63
2022-10-18T07:59:26.194Z,15.67
2022-10-18T08:01:57.480Z,15.67
2022-10-18T08:04:28.788Z,15.64
2022-10-18T08:07:00.133Z,15.73
2022-10-18T08:09:31.402Z,15.76
2022-10-18T08:12:02.659Z,15.83
2022-10-18T08:14:33.950Z,15.80
2022-10-18T08:17:05.207Z,15.92
2022-10-18T08:19:36.484Z,15.89
2022-10-18T08:22:07.729Z,15.85
2022-10-18T08:24:39.030Z,15.81
2022-10-18T08:27:10.277Z,15.80
2022-10-18T08:29:41.755Z,15.73
2022-10-18T08:32:13.779Z,15.82
2022-10-18T08:34:45.058Z,15.89
2022-10-18T08:37:16.385Z,15.93
2022-10-18T08:39:47.628Z,15.98
2022-10-18T08:42:52.570Z,16.03
2022-10-18T08:45:41.057Z,15.94
2022-10-18T08:48:24.085Z,15.82
2022-10-18T08:50:57.439Z,15.78
2022-10-18T08:53:55.286Z,15.56
2022-10-18T08:56:26.878Z,15.71
2022-10-18T08:58:58.156Z,15.61
2022-10-18T09:04:39.905Z,15.45
2022-10-18T09:07:43.781Z,15.38
2022-10-18T09:10:31.046Z,15.32
2022-10-18T09:13:45.769Z,15.25
2022-10-18T09:16:27.433Z,15.26
2022-10-18T09:19:27.114Z,15.34
2022-10-18T09:22:09.677Z,15.34
2022-10-18T09:24:49.714Z,15.26
2022-10-18T09:27:30.077Z,15.29
2022-10-18T09:30:25.087Z,15.53
2022-10-18T09:33:10.770Z,15.67
2022-10-18T09:36:01.347Z,15.77
2022-10-18T09:38:41.699Z,15.89
2022-10-18T09:41:37.624Z,15.93
2022-10-18T09:44:08.843Z,15.81
2022-10-18T09:46:45.349Z,15.72
2022-10-18T09:49:21.830Z,15.79
2022-10-18T09:51:54.122Z,15.88
2022-10-18T09:54:43.608Z,16.05
2022-10-18T09:57:26.155Z,16.17
2022-10-18T09:59:58.149Z,16.36
2022-10-18T10:02:29.479Z,16.52
2022-10-18T10:05:00.938Z,16.66
2022-10-18T10:07:35.414Z,16.81
2022-10-18T10:10:16.295Z,16.87
2022-10-18T10:12:48.834Z,16.90
2022-10-18T10:15:22.626Z,16.97
2022-10-18T10:18:00.606Z,16.97
2022-10-18T10:20:50.717Z,17.10
2022-10-18T10:23:29.008Z,17.13
2022-10-18T10:26:23.905Z,17.17
2022-10-18T10:28:55.298Z,17.25
2022-10-18T10:31:31.390Z,17.37
2022-10-18T10:34:14.644Z,17.48
2022-10-18T10:36:51.223Z,17.50
2022-10-18T10:39:24.556Z,17.50
2022-10-18T10:41:58.797Z,17.53
2022-10-18T10:44:34.056Z,17.59
2022-10-18T10:47:05.584Z,17.67
2022-10-18T10:49:47.400Z,17.71
2022-10-18T10:52:27.211Z,17.76
2022-10-18T10:55:06.110Z,17.78
2022-10-18T10:57:50.968Z,17.78
2022-10-18T11:00:44.172Z,17.73
2022-10-18T11:03:29.202Z,17.77
2022-10-18T11:06:01.810Z,17.86
2022-10-18T11:08:38.700Z,17.89
2022-10-18T11:11:28.509Z,17.94
2022-10-18T11:14:25.807Z,17.95
2022-10-18T11:17:22.369Z,18.07
2022-10-18T11:20:16.502Z,18.25
2022-10-18T11:23:16.658Z,18.16
2022-10-18T11:26:12.570Z,18.64
2022-10-18T11:29:05.477Z,18.85
2022-10-18T11:31:52.582Z,18.91
2022-10-18T11:34:49.301Z,18.59
2022-10-18T11:37:38.390Z,18.43
2022-10-18T11:40:20.798Z,18.28
2022-10-18T11:43:10.707Z,18.22
2022-10-18T11:45:50.603Z,18.35
2022-10-18T11:48:24.535Z,18.47
2022-10-18T11:51:19.966Z,18.40
2022-10-18T11:54:24.322Z,18.34
2022-10-18T11:57:27.927Z,18.34
2022-10-18T12:00:05.194Z,18.46
2022-10-18T12:03:12.961Z,18.41
2022-10-18T12:05:47.187Z,18.42
2022-10-18T12:08:25.451Z,18.38
2022-10-18T12:11:05.052Z,18.61
2022-10-18T12:13:51.142Z,18.73
2022-10-18T12:16:45.504Z,18.82
2022-10-18T12:19:25.420Z,18.77
2022-10-18T12:22:13.650Z,18.76
2022-10-18T12:24:44.913Z,18.48
2022-10-18T12:27:17.171Z,18.29
2022-10-18T12:30:14.144Z,18.12
2022-10-18T12:33:02.250Z,17.97
2022-10-18T12:35:51.065Z,17.72
2022-10-18T12:38:35.651Z,17.48
2022-10-18T12:41:07.140Z,17.32
2022-10-18T12:43:38.446Z,17.25
2022-10-18T12:46:13.762Z,17.17
2022-10-18T12:49:04.109Z,17.13
2022-10-18T12:51:35.390Z,17.12
2022-10-18T12:54:11.774Z,17.19
2022-10-18T12:56:43.765Z,17.17
2022-10-18T12:59:15.212Z,17.22
2022-10-18T13:01:55.469Z,17.12
2022-10-18T13:04:26.822Z,17.11
2022-10-18T13:06:58.202Z,17.19
2022-10-18T13:09:36.938Z,17.27
2022-10-18T13:12:11.009Z,17.32
2022-10-18T13:15:12.581Z,17.36
2022-10-18T13:17:54.716Z,17.31
2022-10-18T13:20:40.316Z,17.30
2022-10-18T13:23:39.376Z,17.35
2022-10-18T13:26:25.129Z,17.22
2022-10-18T13:29:41.150Z,17.13
2022-10-18T13:32:24.171Z,17.00
2022-10-18T13:34:55.790Z,16.97
2022-10-18T13:37:29.102Z,16.99
2022-10-18T13:40:24.247Z,17.12
2022-10-18T13:42:55.502Z,17.17
2022-10-18T13:45:32.957Z,17.29
2022-10-18T13:48:27.299Z,17.43
2022-10-18T13:51:22.356Z,17.48
2022-10-18T13:54:27.596Z,17.41
2022-10-18T13:57:15.929Z,17.36
2022-10-18T13:59:57.540Z,17.34
2022-10-18T14:02:52.991Z,17.40
2022-10-18T14:05:50.035Z,17.67
2022-10-18T14:08:29.557Z,17.87
2022-10-18T14:11:07.900Z,17.90
2022-10-18T14:13:51.190Z,17.79
2022-10-18T14:16:31.873Z,17.69
2022-10-18T14:19:24.954Z,17.60
2022-10-18T14:22:38.335Z,17.51
2022-10-18T14:25:22.610Z,17.54
2022-10-18T14:28:31.289Z,17.59
2022-10-18T14:31:18.100Z,17.59
2022-10-18T14:33:57.291Z,17.58
2022-10-18T14:36:37.622Z,17.52
2022-10-18T14:39:20.133Z,17.48
2022-10-18T14:41:53.684Z,17.55
2022-10-18T14:44:30.747Z,17.60
2022-10-18T14:47:23.531Z,17.59
2022-10-18T14:49:57.525Z,17.53
2022-10-18T14:52:35.437Z,17.36
2022-10-18T14:55:21.026Z,17.26
2022-10-18T14:57:52.556Z,17.13
2022-10-18T15:00:30.234Z,17.01
2022-10-18T15:03:03.893Z,16.88
2022-10-18T15:05:35.168Z,16.74
2022-10-18T15:08:06.621Z,16.60
2022-10-18T15:10:37.997Z,16.47
2022-10-18T15:13:12.832Z,16.34
2022-10-18T15:15:44.853Z,16.23
2022-10-18T15:18:25.110Z,16.12
2022-10-18T15:21:22.697Z,16.05
2022-10-18T15:23:57.740Z,15.96
2022-10-18T15:26:30.250Z,15.89
2022-10-18T15:29:04.485Z,15.81
2022-10-18T15:31:42.841Z,15.73
2022-10-18T15:34:23.200Z,15.69
2022-10-18T15:36:56.045Z,15.67
2022-10-18T15:39:31.793Z,15.67
2022-10-18T15:42:03.207Z,15.54
2022-10-18T15:44:54.868Z,15.58
2022-10-18T15:47:26.130Z,15.51
2022-10-18T15:49:58.666Z,15.41
2022-10-18T15:52:38.497Z,15.32
2022-10-18T15:55:29.016Z,15.20
2022-10-18T15:58:04.977Z,15.14
2022-10-18T16:00:36.242Z,15.07
2022-10-18T16:03:09.219Z,14.98
2022-10-18T16:05:40.719Z,14.93
2022-10-18T16:08:30.261Z,14.90
2022-10-18T16:11:01.632Z,14.88
2022-10-18T16:13:33.143Z,14.91
2022-10-18T16:16:04.613Z,14.94
2022-10-18T16:18:35.862Z,14.96
2022-10-18T16:21:16.458Z,14.93
2022-10-18T16:23:48.994Z,15.00
2022-10-18T16:26:21.338Z,15.03
2022-10-18T16:28:54.550Z,15.03
2022-10-18T16:31:29.548Z,15.05
2022-10-18T16:34:01.870Z,15.04
2022-10-18T16:36:33.481Z,14.99
2022-10-18T16:39:07.647Z,14.97
2022-10-18T16:41:39.012Z,14.94
2022-10-18T16:44:10.817Z,14.92
2022-10-18T16:46:42.621Z,14.91
2022-10-18T16:51:55.402Z,14.87
2022-10-18T16:54:26.665Z,14.87
2022-10-18T16:56:57.980Z,14.85
2022-10-18T16:59:30.967Z,14.85
2022-10-18T17:02:06.318Z,14.87
2022-10-18T17:04:37.641Z,14.84
2022-10-18T17:09:57.613Z,14.83
2022-10-18T17:12:28.934Z,14.82
2022-10-18T17:15:00.303Z,14.79
2022-10-18T17:17:32.214Z,14.73
2022-10-18T17:20:06.178Z,14.71
2022-10-18T17:22:37.510Z,14.68
2022-10-18T17:25:08.935Z,14.63
2022-10-18T17:27:40.254Z,14.50
2022-10-18T17:30:13.035Z,14.59
2022-10-18T17:32:44.615Z,14.60
2022-10-18T17:35:16.043Z,14.53
2022-10-18T17:37:48.889Z,14.51
2022-10-18T17:40:20.807Z,14.48
2022-10-18T17:42:53.305Z,14.35
2022-10-18T17:45:25.252Z,14.42
2022-10-18T17:47:56.500Z,14.40
2022-10-18T17:50:29.033Z,14.40
2022-10-18T17:53:00.457Z,14.42
2022-10-18T17:55:34.218Z,14.37
2022-10-18T17:58:05.945Z,14.43
2022-10-18T18:00:37.268Z,14.44
2022-10-18T18:03:08.775Z,14.43
2022-10-18T18:05:40.173Z,14.43
2022-10-18T18:08:11.517Z,14.40
2022-10-18T18:10:42.939Z,14.38
2022-10-18T18:13:16.309Z,14.35
2022-10-18T18:15:50.921Z,14.37
2022-10-18T18:18:22.317Z,14.38
2022-10-18T18:20:55.210Z,14.40
2022-10-18T18:23:26.710Z,14.40
2022-10-18T18:25:58.345Z,14.42
2022-10-18T18:28:29.615Z,14.43
2022-10-18T18:31:05.761Z,14.42
2022-10-18T18:33:40.620Z,14.30
2022-10-18T18:36:12.009Z,14.42
2022-10-18T18:38:43.852Z,14.34
2022-10-18T18:41:18.266Z,14.42
2022-10-18T18:43:57.365Z,14.38
2022-10-18T18:46:32.938Z,14.45
2022-10-18T18:49:05.826Z,14.46
2022-10-18T18:51:39.510Z,14.44
2022-10-18T18:54:13.758Z,14.46
2022-10-18T18:56:45.077Z,14.45
2022-10-18T18:59:17.094Z,14.46
2022-10-18T19:01:48.588Z,14.44
2022-10-18T19:04:19.999Z,14.43
2022-10-18T19:06:51.276Z,14.42
2022-10-18T19:09:22.895Z,14.44
2022-10-18T19:11:56.329Z,14.44
2022-10-18T19:14:28.908Z,14.42
2022-10-18T19:17:01.470Z,14.31
2022-10-18T19:19:32.784Z,14.39
2022-10-18T19:22:04.906Z,14.38
2022-10-18T19:24:36.750Z,14.31
2022-10-18T19:27:12.330Z,14.37
2022-10-18T19:29:45.777Z,14.37
2022-10-18T19:32:18.566Z,14.38
2022-10-18T19:34:49.880Z,14.37
2022-10-18T19:37:21.265Z,14.37
2022-10-18T19:39:52.515Z,14.36
2022-10-18T19:42:27.479Z,14.30
2022-10-18T19:45:02.903Z,14.25
2022-10-18T19:47:34.201Z,14.31
2022-10-18T19:50:05.866Z,14.31
2022-10-18T19:52:37.201Z,14.30
2022-10-18T19:55:08.553Z,14.23
2022-10-18T19:57:39.814Z,14.27
2022-10-18T20:00:12.521Z,14.26
2022-10-18T20:02:46.335Z,14.25
2022-10-18T20:05:17.613Z,14.25
2022-10-18T20:07:48.922Z,14.24
2022-10-18T20:10:20.173Z,14.23
2022-10-18T20:12:51.423Z,14.23
2022-10-18T20:15:22.757Z,14.14
2022-10-18T20:17:55.813Z,14.21
2022-10-18T20:20:27.157Z,14.19
2022-10-18T20:22:58.410Z,14.19
2022-10-18T20:25:29.823Z,14.16
2022-10-18T20:28:01.125Z,14.15
2022-10-18T20:30:32.849Z,13.99
2022-10-18T20:33:04.790Z,14.15
2022-10-18T20:35:36.098Z,14.16
2022-10-18T20:38:07.350Z,14.15
2022-10-18T20:40:38.891Z,14.12
2022-10-18T20:43:10.235Z,14.13
2022-10-18T20:45:41.492Z,14.12
2022-10-18T20:48:12.748Z,14.12
2022-10-18T20:50:44.178Z,14.12
2022-10-18T20:53:15.558Z,14.12
2022-10-18T20:55:46.824Z,14.12
2022-10-18T20:58:18.282Z,14.10
2022-10-18T21:00:49.534Z,14.10
2022-10-18T21:03:20.842Z,14.06
2022-10-18T21:05:52.151Z,14.00
2022-10-18T21:08:23.524Z,13.96
2022-10-18T21:10:55.647Z,13.90
2022-10-18T21:13:26.963Z,13.85
2022-10-18T21:15:59.516Z,13.88
2022-10-18T21:18:32.824Z,13.73
2022-10-18T21:21:18.544Z,13.73
2022-10-18T21:23:51.270Z,13.61
2022-10-18T21:26:25.578Z,13.50
2022-10-18T21:28:58.715Z,13.37
2022-10-18T21:31:32.085Z,13.25
2022-10-18T21:34:06.226Z,13.14
2022-10-18T21:36:37.620Z,13.02
2022-10-18T21:39:13.517Z,13.04
2022-10-18T21:41:45.330Z,13.05
2022-10-18T21:44:17.288Z,13.07
2022-10-18T21:46:48.780Z,13.01
2022-10-18T21:49:20.236Z,13.01
2022-10-18T21:51:51.590Z,12.89
2022-10-18T21:54:22.820Z,12.88
2022-10-18T21:56:54.261Z,12.80
2022-10-18T21:59:25.513Z,12.86
2022-10-18T22:01:57.155Z,12.85
2022-10-18T22:04:28.398Z,12.83
2022-10-18T22:06:59.748Z,12.80
2022-10-18T22:09:31.089Z,12.87
2022-10-18T22:12:02.741Z,12.88
2022-10-18T22:14:34.438Z,12.86
2022-10-18T22:17:05.889Z,12.66
2022-10-18T22:19:37.231Z,12.76
2022-10-18T22:22:08.935Z,12.73
2022-10-18T22:24:40.231Z,12.73
2022-10-18T22:27:11.621Z,12.75
2022-10-18T22:29:42.880Z,12.76
2022-10-18T22:32:14.130Z,12.78
2022-10-18T22:34:45.804Z,12.66
2022-10-18T22:37:17.056Z,12.84
2022-10-18T22:39:48.306Z,12.87
2022-10-18T22:42:19.538Z,12.89
2022-10-18T22:44:50.842Z,12.91
2022-10-18T22:47:22.218Z,12.92
2022-10-18T22:49:53.520Z,12.93
2022-10-18T22:52:24.790Z,12.95
2022-10-18T22:54:56.052Z,12.96
2022-10-18T22:57:29.129Z,12.95
2022-10-18T23:00:00.376Z,12.99
2022-10-18T23:02:31.923Z,12.99
2022-10-18T23:05:03.694Z,12.99
2022-10-18T23:07:35.050Z,12.93
2022-10-18T23:10:06.526Z,12.86
2022-10-18T23:12:37.809Z,12.78
2022-10-18T23:15:09.564Z,12.70
2022-10-18T23:17:40.860Z,12.67
2022-10-18T23:20:12.514Z,12.66
2022-10-18T23:22:43.811Z,12.66
2022-10-18T23:25:15.413Z,12.68
2022-10-18T23:27:46.826Z,12.71
2022-10-18T23:30:18.210Z,12.75
2022-10-18T23:32:49.497Z,12.60
2022-10-18T23:35:20.775Z,12.77
2022-10-18T23:37:52.613Z,12.81
2022-10-18T23:40:23.941Z,12.83
2022-10-18T23:42:55.194Z,12.82
2022-10-18T23:45:26.465Z,12.83
2022-10-18T23:47:57.815Z,12.82
2022-10-18T23:50:29.065Z,12.82
2022-10-18T23:53:00.317Z,12.83
2022-10-18T23:55:31.650Z,12.81
2022-10-18T23:58:02.976Z,12.76
